createdAt,value
2018-03-28T00:00:33.763Z,14.57
2018-03-28T00:03:01.356Z,15.17
2018-03-28T00:05:29.248Z,14.93
2018-03-28T00:07:56.751Z,15.57
2018-03-28T00:10:24.259Z,15.13
2018-03-28T00:12:51.770Z,15.13
2018-03-28T00:15:19.278Z,15.73
2018-03-28T00:17:46.778Z,14.67
2018-03-28T00:20:14.268Z,15.93
2018-03-28T00:22:42.152Z,14.73
2018-03-28T00:25:10.387Z,14.20
2018-03-28T00:27:37.875Z,14.77
2018-03-28T00:30:05.375Z,14.03
2018-03-28T00:32:32.892Z,14.83
2018-03-28T00:35:00.461Z,14.33
2018-03-28T00:37:27.973Z,14.20
2018-03-28T00:39:55.511Z,13.63
2018-03-28T00:42:23.025Z,15.53
2018-03-28T00:44:50.621Z,14.23
2018-03-28T00:47:18.104Z,13.47
2018-03-28T00:49:45.598Z,13.27
2018-03-28T00:52:13.107Z,14.97
2018-03-28T00:54:40.608Z,13.40
2018-03-28T00:57:08.119Z,13.77
2018-03-28T00:59:35.620Z,13.73
2018-03-28T01:02:03.130Z,14.00
2018-03-28T01:04:30.635Z,13.07
2018-03-28T01:06:58.687Z,14.00
2018-03-28T01:09:26.194Z,14.53
2018-03-28T01:11:53.691Z,12.93
2018-03-28T01:14:21.189Z,13.10
2018-03-28T01:16:48.699Z,12.50
2018-03-28T01:19:16.194Z,14.17
2018-03-28T01:21:43.687Z,15.20
2018-03-28T01:24:13.446Z,12.83
2018-03-28T01:26:40.951Z,12.73
2018-03-28T01:29:09.041Z,12.63
2018-03-28T01:31:36.535Z,12.37
2018-03-28T01:34:05.255Z,12.23
2018-03-28T01:36:32.779Z,11.13
2018-03-28T01:39:00.697Z,13.17
2018-03-28T01:41:28.227Z,13.27
2018-03-28T01:43:55.733Z,13.13
2018-03-28T01:46:23.260Z,13.47
2018-03-28T01:48:50.796Z,13.97
2018-03-28T01:51:18.333Z,14.13
2018-03-28T01:53:46.241Z,13.13
2018-03-28T01:56:13.746Z,12.50
2018-03-28T01:58:41.261Z,12.53
2018-03-28T02:01:08.748Z,12.40
2018-03-28T02:03:36.247Z,12.23
2018-03-28T02:06:03.731Z,12.63
2018-03-28T02:08:31.232Z,12.53
2018-03-28T02:10:58.723Z,12.53
2018-03-28T02:13:26.239Z,12.27
2018-03-28T02:15:53.731Z,12.17
2018-03-28T02:18:21.222Z,12.10
2018-03-28T02:20:48.729Z,11.67
2018-03-28T02:23:16.659Z,11.87
2018-03-28T02:25:44.175Z,12.03
2018-03-28T02:28:11.702Z,11.07
2018-03-28T02:30:39.228Z,12.27
2018-03-28T02:33:06.736Z,11.87
2018-03-28T02:35:34.643Z,11.17
2018-03-28T02:38:02.144Z,11.60
2018-03-28T02:40:30.054Z,13.73
2018-03-28T02:42:57.559Z,13.20
2018-03-28T02:45:25.085Z,14.63
2018-03-28T02:47:52.597Z,12.40
2018-03-28T02:50:20.494Z,12.17
2018-03-28T02:52:47.984Z,12.70
2018-03-28T02:55:15.493Z,12.33
2018-03-28T02:57:42.996Z,11.83
2018-03-28T03:00:10.497Z,12.17
2018-03-28T03:02:38.393Z,11.67
2018-03-28T03:05:05.887Z,11.50
2018-03-28T03:07:33.418Z,12.13
2018-03-28T03:10:00.911Z,12.37
2018-03-28T03:12:28.400Z,13.30
2018-03-28T03:14:55.896Z,12.80
2018-03-28T03:17:23.450Z,13.37
2018-03-28T03:19:50.944Z,13.27
2018-03-28T03:22:18.480Z,13.27
2018-03-28T03:24:45.995Z,11.80
2018-03-28T03:27:13.489Z,13.23
2018-03-28T03:29:41.023Z,12.83
2018-03-28T03:32:08.515Z,12.90
2018-03-28T03:34:35.994Z,18.50
2018-03-28T03:37:03.921Z,15.60
2018-03-28T03:39:31.399Z,13.73
2018-03-28T03:41:58.913Z,12.83
2018-03-28T03:44:26.411Z,13.43
2018-03-28T03:46:53.903Z,13.83
2018-03-28T03:49:21.415Z,13.63
2018-03-28T03:51:48.915Z,12.80
2018-03-28T03:54:16.799Z,14.30
2018-03-28T03:56:44.303Z,13.80
2018-03-28T03:59:11.789Z,13.83
2018-03-28T04:01:39.681Z,13.90
2018-03-28T04:04:07.182Z,14.93
2018-03-28T04:06:37.257Z,14.17
2018-03-28T04:09:05.403Z,14.67
2018-03-28T04:11:33.301Z,14.57
2018-03-28T04:16:34.811Z,13.80
2018-03-28T04:19:02.300Z,15.73
2018-03-28T04:21:29.808Z,15.23
2018-03-28T04:23:57.320Z,15.13
2018-03-28T04:26:25.223Z,16.07
2018-03-28T04:28:52.731Z,16.33
2018-03-28T04:31:20.719Z,16.30
2018-03-28T04:33:48.237Z,16.57
2018-03-28T04:36:15.746Z,16.40
2018-03-28T04:38:43.254Z,17.30
2018-03-28T04:41:10.750Z,16.30
2018-03-28T04:43:38.282Z,16.97
2018-03-28T04:46:06.199Z,16.87
2018-03-28T04:48:33.714Z,17.43
2018-03-28T04:51:01.606Z,16.97
2018-03-28T04:53:29.103Z,18.37
2018-03-28T04:55:56.611Z,18.00
2018-03-28T04:58:24.100Z,17.50
2018-03-28T05:00:51.598Z,17.90
2018-03-28T05:03:19.112Z,17.00
2018-03-28T05:05:46.636Z,18.63
2018-03-28T05:08:14.271Z,18.47
2018-03-28T05:10:42.236Z,18.50
2018-03-28T05:13:09.781Z,20.40
2018-03-28T05:15:37.452Z,18.60
2018-03-28T05:18:04.944Z,18.77
2018-03-28T05:20:32.712Z,19.57
2018-03-28T05:23:00.242Z,17.10
2018-03-28T05:25:28.373Z,18.90
2018-03-28T05:27:55.887Z,19.67
2018-03-28T05:30:23.817Z,18.57
2018-03-28T05:32:51.402Z,19.73
2018-03-28T05:35:18.911Z,18.23
2018-03-28T05:37:46.406Z,20.40
2018-03-28T05:40:13.912Z,20.27
2018-03-28T05:42:42.201Z,20.20
2018-03-28T05:45:10.173Z,21.97
2018-03-28T05:47:38.079Z,20.70
2018-03-28T05:50:06.008Z,21.00
2018-03-28T05:52:33.621Z,22.30
2018-03-28T05:55:01.103Z,22.07
2018-03-28T05:57:28.636Z,21.03
2018-03-28T05:59:56.546Z,22.50
2018-03-28T06:02:24.056Z,22.00
2018-03-28T06:04:51.984Z,23.27
2018-03-28T06:07:19.477Z,23.57
2018-03-28T06:09:47.382Z,23.07
2018-03-28T06:12:14.920Z,23.87
2018-03-28T06:14:42.474Z,23.73
2018-03-28T06:17:10.448Z,25.77
2018-03-28T06:19:38.340Z,23.40
2018-03-28T06:22:05.943Z,23.70
2018-03-28T06:24:33.537Z,22.17
2018-03-28T06:27:01.047Z,23.43
2018-03-28T06:29:28.555Z,24.23
2018-03-28T06:31:56.067Z,27.13
2018-03-28T06:34:23.575Z,25.13
2018-03-28T06:36:51.080Z,25.27
2018-03-28T06:39:18.616Z,25.67
2018-03-28T06:41:46.228Z,25.63
2018-03-28T06:44:14.115Z,26.33
2018-03-28T06:46:41.628Z,24.90
2018-03-28T06:49:09.118Z,24.57
2018-03-28T06:51:36.619Z,26.60
2018-03-28T06:54:04.139Z,26.87
2018-03-28T06:56:31.662Z,25.80
2018-03-28T06:58:59.203Z,26.40
2018-03-28T07:01:26.690Z,25.93
2018-03-28T07:03:54.584Z,24.77
2018-03-28T07:06:22.083Z,26.27
2018-03-28T07:08:49.644Z,25.43
2018-03-28T07:11:17.164Z,26.90
2018-03-28T07:13:44.661Z,26.20
2018-03-28T07:16:12.194Z,26.07
2018-03-28T07:18:39.682Z,26.23
2018-03-28T07:21:07.191Z,27.13
2018-03-28T07:23:34.715Z,26.27
2018-03-28T07:26:02.607Z,28.77
2018-03-28T07:28:30.124Z,27.00
2018-03-28T07:30:57.709Z,27.40
2018-03-28T07:33:25.233Z,27.40
2018-03-28T07:35:52.769Z,27.50
2018-03-28T07:38:20.273Z,29.40
2018-03-28T07:40:48.176Z,29.13
2018-03-28T07:43:16.448Z,28.03
2018-03-28T07:45:43.936Z,27.27
2018-03-28T07:48:11.427Z,27.30
2018-03-28T07:50:38.943Z,26.70
2018-03-28T07:53:06.431Z,27.43
2018-03-28T07:55:33.935Z,26.50
2018-03-28T07:58:01.430Z,26.43
2018-03-28T08:00:28.935Z,25.37
2018-03-28T08:02:56.431Z,25.47
2018-03-28T08:05:24.015Z,23.07
2018-03-28T08:07:51.531Z,22.43
2018-03-28T08:10:19.035Z,23.63
2018-03-28T08:12:46.534Z,23.53
2018-03-28T08:15:14.052Z,22.77
2018-03-28T08:17:41.544Z,22.00
2018-03-28T08:20:09.071Z,21.93
2018-03-28T08:22:37.261Z,23.40
2018-03-28T08:25:05.137Z,22.50
2018-03-28T08:27:34.093Z,23.73
2018-03-28T08:30:01.620Z,22.80
2018-03-28T08:32:29.128Z,22.97
2018-03-28T08:34:57.016Z,22.83
2018-03-28T08:37:24.696Z,21.90
2018-03-28T08:39:52.206Z,23.27
2018-03-28T08:42:21.227Z,21.60
2018-03-28T08:44:48.800Z,23.73
2018-03-28T08:47:16.310Z,22.10
2018-03-28T08:49:44.331Z,21.47
2018-03-28T08:52:11.969Z,22.53
2018-03-28T08:54:39.506Z,22.73
2018-03-28T08:57:07.483Z,24.20
2018-03-28T08:59:35.010Z,23.30
2018-03-28T09:02:03.354Z,25.43
2018-03-28T09:04:30.875Z,24.03
2018-03-28T09:06:58.824Z,24.17
2018-03-28T09:09:26.315Z,23.43
2018-03-28T09:11:53.896Z,23.47
2018-03-28T09:14:21.426Z,23.53
2018-03-28T09:16:49.316Z,23.87
2018-03-28T09:19:16.835Z,23.50
2018-03-28T09:21:45.299Z,23.50
2018-03-28T09:24:12.807Z,22.60
2018-03-28T09:26:40.321Z,24.10
2018-03-28T09:29:07.846Z,20.70
2018-03-28T09:31:35.530Z,25.47
2018-03-28T09:34:03.434Z,23.77
2018-03-28T09:36:31.028Z,23.27
2018-03-28T09:38:58.536Z,24.53
2018-03-28T09:41:26.673Z,20.27
2018-03-28T09:43:54.364Z,23.23
2018-03-28T09:46:22.036Z,20.53
2018-03-28T09:48:49.583Z,20.40
2018-03-28T09:51:17.520Z,20.53
2018-03-28T09:53:46.054Z,21.17
2018-03-28T09:56:13.575Z,21.60
2018-03-28T09:58:41.085Z,19.97
2018-03-28T10:01:08.578Z,19.67
2018-03-28T10:03:52.173Z,21.20
2018-03-28T10:06:19.788Z,20.27
2018-03-28T10:08:47.283Z,20.17
2018-03-28T10:11:14.795Z,17.13
2018-03-28T10:13:42.292Z,19.80
2018-03-28T10:16:09.818Z,19.80
2018-03-28T10:18:37.329Z,20.20
2018-03-28T10:21:04.851Z,19.70
2018-03-28T10:23:32.744Z,18.33
2018-03-28T10:26:00.236Z,19.73
2018-03-28T10:28:27.771Z,18.33
2018-03-28T10:30:55.301Z,21.00
2018-03-28T10:33:22.843Z,20.03
2018-03-28T10:35:50.769Z,19.20
2018-03-28T10:38:18.284Z,20.27
2018-03-28T10:40:45.801Z,17.80
2018-03-28T10:43:13.315Z,18.13
2018-03-28T10:45:40.822Z,18.30
2018-03-28T10:48:08.321Z,18.17
2018-03-28T10:50:35.828Z,18.73
2018-03-28T10:53:04.336Z,17.97
2018-03-28T10:55:32.236Z,18.17
2018-03-28T10:57:59.738Z,15.60
2018-03-28T11:00:27.289Z,17.33
2018-03-28T11:02:54.812Z,16.27
2018-03-28T11:05:22.314Z,16.73
2018-03-28T11:07:49.846Z,16.97
2018-03-28T11:10:17.330Z,16.13
2018-03-28T11:12:44.835Z,15.87
2018-03-28T11:15:12.356Z,15.50
2018-03-28T11:17:39.879Z,16.03
2018-03-28T11:20:07.387Z,16.13
2018-03-28T11:22:35.297Z,17.27
2018-03-28T11:25:02.803Z,16.83
2018-03-28T11:27:30.308Z,18.10
2018-03-28T11:29:57.807Z,16.90
2018-03-28T11:32:25.314Z,16.27
2018-03-28T11:34:52.881Z,15.83
2018-03-28T11:37:20.443Z,16.17
2018-03-28T11:39:48.383Z,15.00
2018-03-28T11:42:15.888Z,15.93
2018-03-28T11:44:43.415Z,14.57
2018-03-28T11:47:10.975Z,15.73
2018-03-28T11:49:38.488Z,15.60
2018-03-28T11:52:05.992Z,16.23
2018-03-28T11:54:33.488Z,16.33
2018-03-28T11:57:01.051Z,13.97
2018-03-28T11:59:28.556Z,14.93
2018-03-28T12:01:56.078Z,14.80
2018-03-28T12:04:23.602Z,14.67
2018-03-28T12:06:51.124Z,13.53
2018-03-28T12:09:18.624Z,13.60
2018-03-28T12:11:46.125Z,14.03
2018-03-28T12:14:13.634Z,13.37
2018-03-28T12:16:41.159Z,12.87
2018-03-28T12:19:08.672Z,13.57
2018-03-28T12:21:36.155Z,13.20
2018-03-28T12:24:03.667Z,11.07
2018-03-28T12:26:31.182Z,11.50
2018-03-28T12:28:58.703Z,11.57
2018-03-28T12:31:26.193Z,11.57
2018-03-28T12:33:53.709Z,10.80
2018-03-28T12:36:21.203Z,11.07
2018-03-28T12:38:49.100Z,10.80
2018-03-28T12:41:16.621Z,11.27
2018-03-28T12:43:44.504Z,12.23
2018-03-28T12:46:12.016Z,11.73
2018-03-28T12:48:39.527Z,11.70
2018-03-28T12:51:07.051Z,12.60
2018-03-28T12:53:34.944Z,13.10
2018-03-28T12:56:02.462Z,11.87
2018-03-28T12:58:29.958Z,12.47
2018-03-28T13:01:00.482Z,12.53
2018-03-28T13:03:28.051Z,13.00
2018-03-28T13:05:55.499Z,12.83
2018-03-28T13:08:23.003Z,12.70
2018-03-28T13:10:50.516Z,14.13
2018-03-28T13:13:18.029Z,14.87
2018-03-28T13:15:46.413Z,13.37
2018-03-28T13:18:13.910Z,14.50
2018-03-28T13:20:41.478Z,14.67
2018-03-28T13:23:09.027Z,16.70
2018-03-28T13:25:36.531Z,15.83
2018-03-28T13:28:04.039Z,18.20
2018-03-28T13:30:31.546Z,19.60
2018-03-28T13:32:59.057Z,19.57
2018-03-28T13:35:26.563Z,22.73
2018-03-28T13:37:54.068Z,25.90
2018-03-28T13:40:21.655Z,30.50
2018-03-28T13:42:49.169Z,33.40
2018-03-28T13:45:19.101Z,30.70
2018-03-28T13:47:46.591Z,28.13
2018-03-28T13:50:14.086Z,28.33
2018-03-28T13:52:41.571Z,26.57
2018-03-28T13:55:09.067Z,23.13
2018-03-28T13:57:36.566Z,33.47
2018-03-28T14:00:04.179Z,21.33
2018-03-28T14:02:31.639Z,29.70
2018-03-28T14:04:59.132Z,28.80
2018-03-28T14:07:27.069Z,33.77
2018-03-28T14:09:54.572Z,32.27
2018-03-28T14:12:22.490Z,30.13
2018-03-28T14:14:49.983Z,28.30
2018-03-28T14:17:17.913Z,31.13
2018-03-28T14:19:45.417Z,29.33
2018-03-28T14:22:13.312Z,29.77
2018-03-28T14:24:40.828Z,28.17
2018-03-28T14:27:08.742Z,28.23
2018-03-28T14:29:36.274Z,28.90
2018-03-28T14:32:04.154Z,28.67
2018-03-28T14:34:31.668Z,27.00
2018-03-28T14:36:59.173Z,24.17
2018-03-28T14:39:26.838Z,27.23
2018-03-28T14:41:54.332Z,22.37
2018-03-28T14:44:21.892Z,19.13
2018-03-28T14:46:49.389Z,24.57
2018-03-28T14:49:16.908Z,20.27
2018-03-28T14:51:44.414Z,23.83
2018-03-28T14:54:11.915Z,25.47
2018-03-28T14:56:39.445Z,24.97
2018-03-28T14:59:06.989Z,25.57
2018-03-28T15:01:34.479Z,26.00
2018-03-28T15:04:01.999Z,27.70
2018-03-28T15:06:29.512Z,27.03
2018-03-28T15:08:57.015Z,26.43
2018-03-28T15:11:24.531Z,24.43
2018-03-28T15:13:52.034Z,26.90
2018-03-28T15:16:19.516Z,29.67
2018-03-28T15:18:47.011Z,24.13
2018-03-28T15:21:14.504Z,28.10
2018-03-28T15:23:42.007Z,28.50
2018-03-28T15:26:09.506Z,29.30
2018-03-28T15:28:37.013Z,27.33
2018-03-28T15:31:04.510Z,22.13
2018-03-28T15:33:32.047Z,22.00
2018-03-28T15:35:59.547Z,22.47
2018-03-28T15:38:27.050Z,21.87
2018-03-28T15:40:54.555Z,19.90
2018-03-28T15:43:22.044Z,19.27
2018-03-28T15:45:49.564Z,24.53
2018-03-28T15:48:17.051Z,22.40
2018-03-28T15:50:44.554Z,23.57
2018-03-28T15:53:12.047Z,24.77
2018-03-28T15:55:39.553Z,25.20
2018-03-28T15:58:07.042Z,25.23
2018-03-28T16:00:34.938Z,23.57
2018-03-28T16:03:02.464Z,22.63
2018-03-28T16:05:30.344Z,21.90
2018-03-28T16:07:57.838Z,20.10
2018-03-28T16:10:25.339Z,21.73
2018-03-28T16:12:53.236Z,22.67
2018-03-28T16:15:20.725Z,22.23
2018-03-28T16:17:48.264Z,21.63
2018-03-28T16:20:15.756Z,22.30
2018-03-28T16:22:43.264Z,19.90
2018-03-28T16:25:10.757Z,20.50
2018-03-28T16:27:38.247Z,22.57
2018-03-28T16:30:06.152Z,21.53
2018-03-28T16:32:33.676Z,19.57
2018-03-28T16:35:01.578Z,22.03
2018-03-28T16:37:29.074Z,21.93
2018-03-28T16:39:56.574Z,23.23
2018-03-28T16:42:24.087Z,23.50
2018-03-28T16:44:51.601Z,22.23
2018-03-28T16:47:19.115Z,22.10
2018-03-28T16:49:46.851Z,22.50
2018-03-28T16:52:14.344Z,23.27
2018-03-28T16:54:42.264Z,25.37
2018-03-28T16:57:09.767Z,23.33
2018-03-28T16:59:37.680Z,24.07
2018-03-28T17:02:05.226Z,23.37
2018-03-28T17:04:32.719Z,25.33
2018-03-28T17:07:00.248Z,25.50
2018-03-28T17:09:27.739Z,25.70
2018-03-28T17:11:55.303Z,24.17
2018-03-28T17:14:22.960Z,22.27
2018-03-28T17:16:50.489Z,24.27
2018-03-28T17:19:17.990Z,13.47
2018-03-28T17:21:45.891Z,25.07
2018-03-28T17:24:13.441Z,23.50
2018-03-28T17:26:41.348Z,25.30
2018-03-28T17:29:08.843Z,15.57
2018-03-28T17:31:36.379Z,11.90
2018-03-28T17:34:03.876Z,13.30
2018-03-28T17:36:31.371Z,13.13
2018-03-28T17:38:58.900Z,10.53
2018-03-28T17:41:26.796Z,12.37
2018-03-28T17:43:54.329Z,11.50
2018-03-28T17:46:21.832Z,11.23
2018-03-28T17:48:49.323Z,10.67
2018-03-28T17:51:17.252Z,9.13
2018-03-28T17:53:44.751Z,10.27
2018-03-28T17:56:12.674Z,10.63
2018-03-28T17:58:40.163Z,9.83
2018-03-28T18:01:08.104Z,10.83
2018-03-28T18:03:35.604Z,11.27
2018-03-28T18:06:03.116Z,9.90
2018-03-28T18:08:30.617Z,10.37
2018-03-28T18:10:58.531Z,11.47
2018-03-28T18:13:26.035Z,9.70
2018-03-28T18:15:53.940Z,13.67
2018-03-28T18:18:21.627Z,7.63
2018-03-28T18:20:49.120Z,9.97
2018-03-28T18:23:17.026Z,10.73
2018-03-28T18:25:45.573Z,11.07
2018-03-28T18:28:13.147Z,10.83
2018-03-28T18:30:40.666Z,12.20
2018-03-28T18:33:08.166Z,12.00
2018-03-28T18:35:35.676Z,14.20
2018-03-28T18:38:03.182Z,12.97
2018-03-28T18:40:30.720Z,8.87
2018-03-28T18:42:58.236Z,10.73
2018-03-28T18:45:25.743Z,9.37
2018-03-28T18:47:53.292Z,11.23
2018-03-28T18:50:20.831Z,11.67
2018-03-28T18:52:48.787Z,12.47
2018-03-28T18:55:16.299Z,12.60
2018-03-28T18:57:43.822Z,13.03
2018-03-28T19:00:11.341Z,11.60
2018-03-28T19:02:40.208Z,12.60
2018-03-28T19:05:07.859Z,13.43
2018-03-28T19:07:35.378Z,13.97
2018-03-28T19:10:02.902Z,13.37
2018-03-28T19:12:30.391Z,11.93
2018-03-28T19:14:57.900Z,13.20
2018-03-28T19:17:25.424Z,12.50
2018-03-28T19:19:53.314Z,12.73
2018-03-28T19:22:20.796Z,12.43
2018-03-28T19:24:48.311Z,12.70
2018-03-28T19:27:16.199Z,11.13
2018-03-28T19:29:43.712Z,12.43
2018-03-28T19:32:11.224Z,11.73
2018-03-28T19:34:38.722Z,11.53
2018-03-28T19:37:06.221Z,11.23
2018-03-28T19:39:33.788Z,11.30
2018-03-28T19:42:01.296Z,10.77
2018-03-28T19:44:28.795Z,9.33
2018-03-28T19:46:56.324Z,9.13
2018-03-28T19:49:23.836Z,7.40
2018-03-28T19:51:51.332Z,5.30
2018-03-28T19:54:18.832Z,7.57
2018-03-28T19:56:46.339Z,9.03
2018-03-28T19:59:13.841Z,8.37
2018-03-28T20:01:41.673Z,10.03
2018-03-28T20:04:09.171Z,8.47
2018-03-28T20:06:37.387Z,9.57
2018-03-28T20:09:05.703Z,9.37
2018-03-28T20:11:33.226Z,8.70
2018-03-28T20:14:01.140Z,10.30
2018-03-28T20:16:28.668Z,9.70
2018-03-28T20:18:56.207Z,8.90
2018-03-28T20:21:23.707Z,9.63
2018-03-28T20:23:51.232Z,10.17
2018-03-28T20:26:18.732Z,11.03
2018-03-28T20:28:46.220Z,8.37
2018-03-28T20:31:13.740Z,10.13
2018-03-28T20:33:41.236Z,9.67
2018-03-28T20:36:08.740Z,8.47
2018-03-28T20:38:36.255Z,11.43
2018-03-28T20:41:03.784Z,10.87
2018-03-28T20:43:31.301Z,12.27
2018-03-28T20:45:59.200Z,15.37
2018-03-28T20:48:26.751Z,15.90
2018-03-28T20:50:54.264Z,13.00
2018-03-28T20:53:21.770Z,15.90
2018-03-28T20:55:49.273Z,18.27
2018-03-28T20:58:16.791Z,20.43
2018-03-28T21:00:44.327Z,15.20
2018-03-28T21:03:11.799Z,20.30
2018-03-28T21:05:39.304Z,16.33
2018-03-28T21:08:08.614Z,15.97
2018-03-28T21:10:36.135Z,12.63
2018-03-28T21:13:03.700Z,12.03
2018-03-28T21:15:31.188Z,9.23
2018-03-28T21:17:58.736Z,9.47
2018-03-28T21:20:26.237Z,8.60
2018-03-28T21:22:53.740Z,6.73
2018-03-28T21:25:21.299Z,6.20
2018-03-28T21:27:48.783Z,5.27
2018-03-28T21:30:16.280Z,7.10
2018-03-28T21:32:43.813Z,7.37
2018-03-28T21:35:11.792Z,10.53
2018-03-28T21:37:39.678Z,10.77
2018-03-28T21:40:07.180Z,9.10
2018-03-28T21:42:34.699Z,8.27
2018-03-28T21:45:02.186Z,7.10
2018-03-28T21:47:29.687Z,6.03
2018-03-28T21:49:57.580Z,6.23
2018-03-28T21:52:25.096Z,7.73
2018-03-28T21:54:52.980Z,7.57
2018-03-28T21:57:20.469Z,7.53
2018-03-28T21:59:47.979Z,5.70
2018-03-28T22:02:15.896Z,6.33
2018-03-28T22:04:43.391Z,7.13
2018-03-28T22:07:10.875Z,7.23
2018-03-28T22:09:38.361Z,9.00
2018-03-28T22:12:05.855Z,8.00
2018-03-28T22:14:33.345Z,7.80
2018-03-28T22:17:01.228Z,7.53
2018-03-28T22:19:28.732Z,6.63
2018-03-28T22:21:56.234Z,7.20
2018-03-28T22:24:23.723Z,5.90
2018-03-28T22:26:51.203Z,6.67
2018-03-28T22:29:18.705Z,8.03
2018-03-28T22:31:46.182Z,8.00
2018-03-28T22:34:13.672Z,7.27
2018-03-28T22:36:41.160Z,7.43
2018-03-28T22:39:09.047Z,7.97
2018-03-28T22:41:36.547Z,6.67
2018-03-28T22:44:04.105Z,8.20
2018-03-28T22:46:31.651Z,7.23
2018-03-28T22:48:59.127Z,8.00
2018-03-28T22:51:26.620Z,7.87
2018-03-28T22:53:54.497Z,8.40
2018-03-28T22:56:22.016Z,8.43
2018-03-28T22:58:49.524Z,7.53
2018-03-28T23:01:17.011Z,6.40
2018-03-28T23:03:44.500Z,5.77
2018-03-28T23:06:12.019Z,5.40
2018-03-28T23:08:39.516Z,5.03
2018-03-28T23:11:07.025Z,4.87
2018-03-28T23:13:34.515Z,5.23
2018-03-28T23:16:01.998Z,5.00
2018-03-28T23:18:29.920Z,6.20
2018-03-28T23:20:57.392Z,5.37
2018-03-28T23:23:24.870Z,5.95
2018-03-28T23:25:52.752Z,5.40
2018-03-28T23:28:20.255Z,5.87
2018-03-28T23:30:47.783Z,6.53
2018-03-28T23:33:15.304Z,5.45
2018-03-28T23:35:43.219Z,6.80
2018-03-28T23:38:10.748Z,5.55
2018-03-28T23:40:38.263Z,7.10
2018-03-28T23:43:05.750Z,6.00
2018-03-28T23:45:33.640Z,6.07
2018-03-28T23:48:01.123Z,4.63
2018-03-28T23:50:28.621Z,6.23
2018-03-28T23:52:56.530Z,6.80
2018-03-28T23:55:24.028Z,6.60
2018-03-28T23:57:51.523Z,5.75
